createdAt,value
2019-05-19T01:52:21.526Z,0.00
2019-05-19T01:52:48.302Z,0.00
2019-05-19T01:53:48.277Z,0.00
2019-05-19T01:54:48.255Z,0.00
2019-05-19T01:55:48.248Z,0.00
2019-05-19T01:56:48.223Z,0.00
2019-05-19T01:57:48.200Z,0.00
2019-05-19T01:58:48.192Z,0.00
2019-05-19T01:59:48.167Z,0.00
2019-05-19T02:00:48.147Z,0.00
2019-05-19T02:01:48.131Z,0.00
2019-05-19T02:02:48.143Z,0.00
2019-05-19T02:03:48.089Z,0.00
2019-05-19T02:04:48.087Z,0.00
2019-05-19T02:05:48.063Z,0.00
2019-05-19T02:06:48.025Z,0.00
2019-05-19T02:07:48.011Z,0.00
2019-05-19T02:08:47.988Z,0.00
2019-05-19T02:09:47.995Z,0.00
2019-05-19T02:10:47.950Z,0.00
2019-05-19T02:11:47.954Z,0.00
2019-05-19T02:12:47.927Z,0.00
2019-05-19T02:13:47.894Z,0.00
2019-05-19T02:14:47.873Z,0.00
2019-05-19T02:15:47.853Z,0.00
2019-05-19T02:16:47.832Z,0.00
2019-05-19T02:17:47.814Z,0.00
2019-05-19T02:18:47.797Z,0.00
2019-05-19T02:19:47.775Z,0.00
2019-05-19T02:20:47.754Z,0.00
2019-05-19T02:21:47.735Z,0.00
2019-05-19T02:22:47.717Z,0.00
2019-05-19T02:23:47.709Z,0.00
2019-05-19T02:24:47.676Z,0.00
2019-05-19T02:25:47.659Z,0.00
2019-05-19T02:26:47.649Z,0.00
2019-05-19T02:27:47.626Z,0.00
2019-05-19T02:28:47.600Z,0.00
2019-05-19T02:29:47.586Z,0.00
2019-05-19T02:30:47.564Z,0.00
2019-05-19T02:31:47.546Z,0.00
2019-05-19T02:32:47.523Z,0.00
2019-05-19T02:33:47.504Z,0.00
2019-05-19T02:34:47.493Z,0.00
2019-05-19T02:35:47.465Z,0.00
2019-05-19T02:36:47.452Z,0.00
2019-05-19T02:37:47.434Z,0.00
2019-05-19T02:38:47.406Z,0.00
2019-05-19T02:39:47.396Z,0.00
2019-05-19T02:40:47.371Z,0.00
2019-05-19T02:41:47.349Z,0.00
2019-05-19T02:42:47.328Z,0.00
2019-05-19T02:43:47.317Z,0.00
2019-05-19T02:44:47.289Z,0.00
2019-05-19T02:45:47.270Z,0.00
2019-05-19T02:46:47.250Z,0.00
2019-05-19T02:47:47.231Z,0.00
2019-05-19T02:48:47.212Z,0.00
2019-05-19T02:49:47.193Z,0.00
2019-05-19T02:50:52.122Z,0.00
2019-05-19T02:51:47.155Z,0.00
2019-05-19T02:52:47.143Z,0.00
2019-05-19T02:53:47.112Z,0.00
2019-05-19T02:54:47.097Z,0.00
2019-05-19T02:55:47.081Z,0.00
2019-05-19T02:56:47.064Z,0.00
2019-05-19T02:57:47.035Z,0.00
2019-05-19T02:58:47.018Z,0.00
2019-05-19T02:59:47.006Z,0.00
2019-05-19T03:00:46.989Z,0.00
2019-05-19T03:01:46.955Z,0.00
2019-05-19T03:02:46.937Z,0.00
2019-05-19T03:06:14.656Z,0.00
2019-05-19T03:07:14.640Z,0.00
2019-05-19T03:08:14.612Z,0.00
2019-05-19T03:09:14.593Z,0.00
2019-05-19T03:10:14.575Z,0.00
2019-05-19T03:11:14.552Z,0.00
2019-05-19T03:12:47.742Z,0.00
2019-05-19T03:13:14.513Z,0.00
2019-05-19T03:14:14.493Z,0.00
2019-05-19T03:15:14.481Z,0.00
2019-05-19T03:16:14.460Z,0.00
2019-05-19T03:17:14.434Z,0.00
2019-05-19T03:20:00.058Z,5.63
2019-05-19T03:21:10.266Z,5.63
2019-05-19T03:21:59.974Z,5.63
2019-05-19T03:22:59.955Z,5.63
2019-05-19T03:23:59.932Z,5.63
2019-05-19T03:24:59.911Z,5.63
2019-05-19T03:26:33.160Z,5.63
2019-05-19T03:26:59.881Z,5.63
2019-05-19T03:27:59.856Z,5.63
2019-05-19T03:28:59.840Z,5.63
2019-05-19T03:29:59.813Z,5.63
2019-05-19T03:30:59.796Z,5.63
2019-05-19T03:34:18.537Z,5.63
2019-05-19T03:34:45.306Z,11.25
2019-05-19T03:35:45.284Z,11.25
2019-05-19T03:36:45.263Z,11.25
2019-05-19T03:37:45.245Z,11.25
2019-05-19T03:39:18.449Z,11.25
2019-05-19T03:39:45.217Z,11.25
2019-05-19T03:40:45.182Z,16.88
2019-05-19T03:41:45.166Z,16.88
2019-05-19T03:42:45.144Z,16.88
2019-05-19T03:46:03.781Z,22.50
2019-05-19T03:46:30.568Z,22.50
2019-05-19T03:47:30.548Z,22.50
2019-05-19T03:48:30.513Z,22.50
2019-05-19T03:49:30.502Z,28.13
2019-05-19T03:51:03.684Z,28.13
2019-05-19T03:51:31.901Z,28.13
2019-05-19T03:52:30.440Z,33.75
2019-05-19T03:53:30.420Z,33.75
2019-05-19T03:54:30.398Z,39.38
2019-05-19T03:57:48.881Z,45.00
2019-05-19T03:58:15.651Z,45.00
2019-05-19T03:59:15.695Z,50.63
2019-05-19T04:00:15.628Z,50.63
2019-05-19T04:01:15.592Z,56.25
2019-05-19T04:02:15.572Z,56.25
2019-05-19T04:03:15.553Z,56.25
2019-05-19T04:04:15.543Z,56.25
2019-05-19T04:05:15.526Z,56.25
2019-05-19T04:06:15.493Z,56.25
2019-05-19T04:09:34.200Z,67.50
2019-05-19T04:10:01.004Z,73.13
2019-05-19T04:11:00.930Z,73.13
2019-05-19T04:12:00.911Z,73.13
2019-05-19T04:13:00.891Z,73.13
2019-05-19T04:14:00.873Z,73.13
2019-05-19T04:15:00.870Z,78.75
2019-05-19T04:16:00.842Z,78.75
2019-05-19T04:17:00.817Z,78.75
2019-05-19T04:18:00.794Z,84.38
2019-05-19T04:21:19.434Z,84.38
2019-05-19T04:21:49.212Z,84.38
2019-05-19T04:23:19.394Z,90.00
2019-05-19T04:23:46.170Z,90.00
2019-05-19T04:24:46.142Z,90.00
2019-05-19T04:25:46.124Z,95.63
2019-05-19T04:26:46.104Z,95.63
2019-05-19T04:27:46.087Z,101.25
2019-05-19T04:28:46.066Z,101.25
2019-05-19T04:32:04.661Z,112.50
2019-05-19T04:32:31.430Z,118.13
2019-05-19T04:34:04.622Z,118.13
2019-05-19T04:34:31.386Z,118.13
2019-05-19T04:35:31.366Z,123.75
2019-05-19T04:36:31.346Z,129.38
2019-05-19T04:37:31.336Z,135.00
2019-05-19T04:38:31.355Z,140.63
2019-05-19T04:39:31.344Z,146.25
2019-05-19T04:42:49.774Z,157.50
2019-05-19T04:43:16.543Z,163.13
2019-05-19T04:44:49.736Z,168.75
2019-05-19T04:45:16.505Z,168.75
2019-05-19T04:46:16.522Z,168.75
2019-05-19T04:47:16.476Z,168.75
2019-05-19T04:48:16.473Z,174.38
2019-05-19T04:49:16.427Z,174.38
2019-05-19T04:50:16.408Z,180.00
2019-05-19T04:53:34.944Z,180.00
2019-05-19T04:54:01.715Z,180.00
2019-05-19T04:55:34.912Z,180.00
2019-05-19T04:58:20.042Z,185.63
2019-05-19T04:58:46.806Z,191.25
2019-05-19T05:00:19.994Z,196.88
2019-05-19T05:03:05.124Z,202.50
2019-05-19T05:03:31.895Z,208.13
2019-05-19T05:05:05.087Z,213.75
2019-05-19T05:07:50.214Z,225.00
2019-05-19T05:08:28.799Z,230.63
2019-05-19T05:09:50.175Z,236.25
2019-05-19T05:12:35.354Z,247.50
2019-05-19T05:13:02.134Z,247.50
2019-05-19T05:14:35.418Z,247.50
2019-05-19T05:17:20.443Z,247.50
2019-05-19T05:17:47.221Z,253.13
2019-05-19T05:19:20.406Z,258.75
2019-05-19T05:25:07.429Z,309.38
2019-05-19T05:26:40.621Z,320.63
2019-05-19T05:27:40.602Z,331.88
2019-05-19T05:29:52.570Z,376.88
2019-05-19T05:31:25.764Z,421.88
2019-05-19T05:32:25.744Z,433.13
2019-05-19T05:34:37.623Z,461.25
2019-05-19T05:37:22.643Z,472.50
2019-05-19T05:40:07.688Z,438.75
2019-05-19T05:42:52.753Z,500.63
2019-05-19T05:45:37.782Z,455.63
2019-05-19T05:48:22.863Z,478.13
2019-05-19T07:22:27.364Z,517.50
2019-05-19T07:23:28.794Z,517.50
2019-05-19T07:23:54.137Z,540.00
2019-05-19T07:24:54.112Z,545.63
2019-05-19T07:25:54.094Z,573.75
2019-05-19T07:26:54.078Z,573.75
2019-05-19T07:27:54.070Z,601.88
2019-05-19T07:28:54.053Z,607.50
2019-05-19T07:29:54.044Z,607.50
2019-05-19T07:30:54.028Z,579.38
2019-05-19T07:31:54.014Z,568.13
2019-05-19T07:32:54.005Z,562.50
2019-05-19T07:33:54.053Z,568.13
2019-05-19T07:34:53.975Z,568.13
2019-05-19T07:35:53.969Z,562.50
2019-05-19T07:36:53.953Z,562.50
2019-05-19T07:37:53.935Z,556.88
2019-05-19T07:38:53.918Z,556.88
2019-05-19T07:39:54.025Z,562.50
2019-05-19T07:40:53.893Z,568.13
2019-05-19T07:41:53.888Z,579.38
2019-05-19T07:42:53.865Z,585.00
2019-05-19T07:43:53.850Z,579.38
2019-05-19T07:44:53.837Z,573.75
2019-05-19T07:45:53.824Z,579.38
2019-05-19T07:46:53.810Z,590.63
2019-05-19T07:47:53.809Z,596.25
2019-05-19T07:48:53.794Z,613.13
2019-05-19T07:49:53.768Z,618.75
2019-05-19T07:50:53.755Z,624.38
2019-05-19T07:51:53.745Z,618.75
2019-05-19T07:52:53.782Z,579.38
2019-05-19T07:53:53.719Z,562.50
2019-05-19T07:54:53.717Z,551.25
2019-05-19T07:55:53.693Z,556.88
2019-05-19T07:56:53.674Z,562.50
2019-05-19T07:57:53.661Z,562.50
2019-05-19T07:58:53.649Z,568.13
2019-05-19T07:59:53.642Z,579.38
2019-05-19T08:00:53.620Z,585.00
2019-05-19T08:01:53.744Z,585.00
2019-05-19T08:02:53.593Z,590.63
2019-05-19T08:03:53.642Z,607.50
2019-05-19T08:04:53.569Z,635.63
2019-05-19T08:05:56.787Z,663.75
2019-05-19T08:06:53.553Z,697.50
2019-05-19T08:07:53.523Z,708.75
2019-05-19T08:08:53.519Z,720.00
2019-05-19T08:09:53.517Z,731.25
2019-05-19T08:10:53.487Z,759.38
2019-05-19T08:11:53.475Z,866.25
2019-05-19T08:12:53.460Z,776.25
2019-05-19T08:13:53.441Z,787.50
2019-05-19T08:14:53.427Z,798.75
2019-05-19T08:15:53.425Z,793.13
2019-05-19T08:16:53.408Z,781.88
2019-05-19T08:17:53.434Z,770.63
2019-05-19T08:18:53.376Z,725.63
2019-05-19T08:19:53.378Z,708.75
2019-05-19T08:20:53.346Z,663.75
2019-05-19T08:21:53.342Z,641.25
2019-05-19T08:22:53.372Z,613.13
2019-05-19T08:24:00.387Z,596.25
2019-05-19T08:24:53.295Z,596.25
2019-05-19T08:25:53.281Z,590.63
2019-05-19T08:26:53.284Z,652.50
2019-05-19T08:27:53.252Z,618.75
2019-05-19T08:28:53.265Z,534.38
2019-05-19T08:29:53.295Z,562.50
2019-05-19T08:30:53.213Z,506.25
2019-05-19T08:31:53.256Z,590.63
2019-05-19T08:32:53.196Z,641.25
2019-05-19T08:33:53.194Z,495.00
2019-05-19T08:34:53.160Z,556.88
2019-05-19T08:35:53.152Z,804.38
2019-05-19T08:36:53.145Z,697.50
2019-05-19T08:37:53.117Z,1395.00
2019-05-19T08:38:53.100Z,1530.00
2019-05-19T08:39:53.090Z,1074.38
2019-05-19T08:40:53.164Z,1164.38
2019-05-19T08:41:53.063Z,1108.13
2019-05-19T08:42:53.047Z,562.50
2019-05-19T08:43:53.538Z,551.25
2019-05-19T08:44:53.023Z,641.25
2019-05-19T08:45:53.009Z,579.38
2019-05-19T08:46:53.006Z,613.13
2019-05-19T08:47:52.978Z,641.25
2019-05-19T08:48:53.022Z,663.75
2019-05-19T08:49:52.972Z,646.88
2019-05-19T08:50:52.938Z,646.88
2019-05-19T08:51:52.951Z,658.13
2019-05-19T08:52:52.941Z,675.00
2019-05-19T08:53:52.914Z,703.13
2019-05-19T08:54:52.883Z,708.75
2019-05-19T08:55:52.879Z,725.63
2019-05-19T08:56:52.870Z,753.75
2019-05-19T08:57:52.851Z,725.63
2019-05-19T08:58:52.838Z,697.50
2019-05-19T08:59:52.838Z,714.38
2019-05-19T09:00:52.812Z,675.00
2019-05-19T09:01:52.816Z,607.50
2019-05-19T09:02:52.775Z,579.38
2019-05-19T09:03:52.766Z,556.88
2019-05-19T09:04:52.748Z,613.13
2019-05-19T09:05:52.735Z,652.50
2019-05-19T09:06:52.774Z,759.38
2019-05-19T09:07:52.712Z,781.88
2019-05-19T09:08:52.754Z,793.13
2019-05-19T09:09:52.687Z,916.88
2019-05-19T09:10:52.671Z,900.00
2019-05-19T09:11:52.658Z,759.38
2019-05-19T09:12:52.643Z,765.00
2019-05-19T09:13:52.635Z,781.88
2019-05-19T09:14:52.627Z,759.38
2019-05-19T09:15:52.612Z,770.63
2019-05-19T09:16:52.589Z,787.50
2019-05-19T09:17:54.297Z,804.38
2019-05-19T09:18:52.570Z,832.50
2019-05-19T09:19:52.553Z,838.13
2019-05-19T09:20:52.548Z,922.50
2019-05-19T09:21:52.522Z,1147.50
2019-05-19T09:22:52.519Z,1822.50
2019-05-19T09:23:52.522Z,2188.13
2019-05-19T09:24:52.492Z,1535.63
2019-05-19T09:25:52.476Z,1158.75
2019-05-19T09:26:52.467Z,849.38
2019-05-19T09:27:52.456Z,826.88
2019-05-19T09:28:52.436Z,860.63
2019-05-19T09:29:52.425Z,900.00
2019-05-19T09:30:52.437Z,911.25
2019-05-19T09:31:52.402Z,1299.38
2019-05-19T09:32:52.390Z,1051.88
2019-05-19T09:33:52.384Z,1006.88
2019-05-19T09:34:52.368Z,1299.38
2019-05-19T09:35:52.356Z,1659.38
2019-05-19T09:36:52.360Z,2233.13
2019-05-19T09:37:52.334Z,2070.00
2019-05-19T09:38:52.492Z,2711.25
2019-05-19T09:39:52.444Z,1873.13
2019-05-19T09:40:52.305Z,967.50
2019-05-19T09:41:52.311Z,2745.00
2019-05-19T09:42:52.289Z,3031.88
2019-05-19T09:43:52.273Z,945.00
2019-05-19T09:44:52.271Z,1085.63
2019-05-19T09:45:52.252Z,1321.88
2019-05-19T09:46:52.250Z,2030.63
2019-05-19T09:47:52.244Z,2053.13
2019-05-19T09:48:52.224Z,2475.00
2019-05-19T09:49:52.225Z,2688.75
2019-05-19T09:50:52.204Z,2278.13
2019-05-19T09:51:52.203Z,2919.38
2019-05-19T09:52:52.194Z,2835.00
2019-05-19T09:53:52.189Z,3065.63
2019-05-19T09:54:52.177Z,2925.00
2019-05-19T09:55:52.165Z,1726.88
2019-05-19T09:56:52.157Z,3285.00
2019-05-19T09:57:52.153Z,2176.88
2019-05-19T09:58:52.138Z,1130.63
2019-05-19T09:59:52.130Z,3178.13
2019-05-19T10:00:52.125Z,2846.25
2019-05-19T10:01:52.117Z,888.75
2019-05-19T10:02:52.161Z,1648.13
2019-05-19T10:03:52.104Z,1046.25
2019-05-19T10:04:52.097Z,900.00
2019-05-19T10:05:52.088Z,2778.75
2019-05-19T10:06:52.115Z,2806.88
2019-05-19T10:07:52.076Z,2491.88
2019-05-19T10:08:52.074Z,1996.88
2019-05-19T10:09:52.063Z,2390.63
2019-05-19T10:10:52.062Z,2244.38
2019-05-19T10:11:52.068Z,2913.75
2019-05-19T10:12:52.044Z,3296.25
2019-05-19T10:13:57.186Z,2441.25
2019-05-19T10:16:56.559Z,883.13
2019-05-19T10:17:56.440Z,905.63
2019-05-19T10:18:56.420Z,832.50
2019-05-19T10:19:56.423Z,765.00
2019-05-19T10:20:56.409Z,956.25
2019-05-19T10:21:56.403Z,2115.00
2019-05-19T10:22:56.396Z,973.13
2019-05-19T10:23:56.443Z,3684.38
2019-05-19T10:25:18.167Z,2418.75
2019-05-19T10:25:56.376Z,3391.88
2019-05-19T10:26:56.382Z,3622.50
2019-05-19T10:27:56.369Z,3628.13
2019-05-19T10:28:56.368Z,3465.00
2019-05-19T10:29:56.351Z,3459.38
2019-05-19T10:30:59.434Z,3155.63
2019-05-19T10:31:56.346Z,3223.13
2019-05-19T10:32:58.703Z,2784.38
2019-05-19T10:33:56.410Z,2593.13
2019-05-19T10:34:56.334Z,2362.50
2019-05-19T10:35:56.336Z,3026.25
2019-05-19T10:36:56.319Z,3200.63
2019-05-19T10:37:56.315Z,3127.50
2019-05-19T10:38:56.351Z,3645.00
2019-05-19T10:39:56.314Z,1451.25
2019-05-19T10:40:56.298Z,770.63
2019-05-19T10:41:56.379Z,731.25
2019-05-19T10:42:56.285Z,911.25
2019-05-19T10:43:56.306Z,995.63
2019-05-19T10:44:56.280Z,1057.50
2019-05-19T10:45:56.267Z,624.38
2019-05-19T10:46:56.269Z,607.50
2019-05-19T10:47:56.256Z,590.63
2019-05-19T10:48:56.262Z,596.25
2019-05-19T10:49:56.252Z,624.38
2019-05-19T10:50:56.238Z,742.50
2019-05-19T10:51:56.231Z,1839.38
2019-05-19T10:52:56.228Z,1766.25
2019-05-19T10:53:56.308Z,849.38
2019-05-19T10:54:56.213Z,894.38
2019-05-19T10:55:56.206Z,2728.13
2019-05-19T10:56:56.232Z,2812.50
2019-05-19T10:57:56.195Z,2851.88
2019-05-19T10:58:56.189Z,3375.00
2019-05-19T10:59:56.189Z,3481.88
2019-05-19T11:00:59.609Z,2086.88
2019-05-19T11:01:56.172Z,1721.25
2019-05-19T11:02:56.214Z,2013.75
2019-05-19T11:03:56.233Z,2289.38
2019-05-19T11:04:56.159Z,3009.38
2019-05-19T11:05:56.149Z,2716.88
2019-05-19T11:06:56.144Z,2261.25
2019-05-19T11:07:56.147Z,2092.50
2019-05-19T11:08:56.134Z,1068.75
2019-05-19T11:09:56.129Z,2441.25
2019-05-19T11:10:56.130Z,2638.13
2019-05-19T11:11:56.116Z,911.25
2019-05-19T11:12:56.128Z,2379.38
2019-05-19T11:13:56.121Z,2199.38
2019-05-19T11:14:56.105Z,714.38
2019-05-19T11:15:56.135Z,787.50
2019-05-19T11:16:56.118Z,2581.88
2019-05-19T11:17:56.096Z,2486.25
2019-05-19T11:18:56.089Z,1895.63
2019-05-19T11:19:56.078Z,680.63
2019-05-19T11:20:56.072Z,613.13
2019-05-19T11:21:56.078Z,618.75
2019-05-19T11:22:56.153Z,669.38
2019-05-19T11:23:56.062Z,781.88
2019-05-19T11:24:56.059Z,888.75
2019-05-19T11:25:56.112Z,1023.75
2019-05-19T11:26:56.042Z,2559.38
2019-05-19T11:27:56.037Z,2103.75
2019-05-19T11:28:56.038Z,3341.25
2019-05-19T11:29:56.031Z,765.00
2019-05-19T11:30:56.020Z,731.25
2019-05-19T11:31:56.014Z,894.38
2019-05-19T11:32:56.012Z,3003.75
2019-05-19T11:33:56.006Z,2767.50
2019-05-19T11:34:56.007Z,2525.63
2019-05-19T11:35:55.992Z,1890.00
2019-05-19T11:36:55.987Z,1507.50
2019-05-19T11:37:56.002Z,1215.00
2019-05-19T11:38:55.976Z,1293.75
2019-05-19T11:39:55.969Z,1327.50
2019-05-19T11:40:55.963Z,1541.25
2019-05-19T11:41:55.958Z,1704.38
2019-05-19T11:42:55.949Z,1006.88
2019-05-19T11:43:55.949Z,663.75
2019-05-19T11:44:55.939Z,663.75
2019-05-19T11:45:55.936Z,714.38
2019-05-19T11:46:55.925Z,731.25
2019-05-19T11:47:55.920Z,703.13
2019-05-19T11:48:55.911Z,669.38
2019-05-19T11:49:55.914Z,624.38
2019-05-19T11:50:55.898Z,579.38
2019-05-19T11:51:55.902Z,472.50
2019-05-19T11:52:55.883Z,405.00
2019-05-19T11:53:55.883Z,365.63
2019-05-19T11:54:55.866Z,354.38
2019-05-19T11:56:06.294Z,360.00
2019-05-19T11:56:55.856Z,365.63
2019-05-19T11:57:55.842Z,365.63
2019-05-19T11:58:55.848Z,360.00
2019-05-19T11:59:55.837Z,354.38
2019-05-19T12:00:55.817Z,371.25
2019-05-19T12:01:55.819Z,376.88
2019-05-19T12:02:55.801Z,388.13
2019-05-19T12:03:55.789Z,410.63
2019-05-19T12:04:55.790Z,416.25
2019-05-19T12:05:55.780Z,427.50
2019-05-19T12:06:55.767Z,461.25
2019-05-19T12:07:55.761Z,495.00
2019-05-19T12:08:55.755Z,551.25
2019-05-19T12:09:55.765Z,551.25
2019-05-19T12:10:55.737Z,562.50
2019-05-19T12:11:55.712Z,562.50
2019-05-19T12:12:55.753Z,551.25
2019-05-19T12:13:55.704Z,545.63
2019-05-19T12:14:55.686Z,551.25
2019-05-19T12:15:55.680Z,568.13
2019-05-19T12:16:55.686Z,579.38
2019-05-19T12:17:55.651Z,601.88
2019-05-19T12:18:57.615Z,613.13
2019-05-19T12:19:55.631Z,618.75
2019-05-19T12:20:55.629Z,624.38
2019-05-19T12:21:55.637Z,630.00
2019-05-19T12:22:55.670Z,618.75
2019-05-19T12:23:55.608Z,607.50
2019-05-19T12:24:55.583Z,601.88
2019-05-19T12:25:55.568Z,585.00
2019-05-19T12:26:55.565Z,551.25
2019-05-19T12:27:55.549Z,551.25
2019-05-19T12:28:55.543Z,523.13
2019-05-19T12:29:55.533Z,472.50
2019-05-19T12:30:55.523Z,410.63
2019-05-19T12:31:55.506Z,382.50
2019-05-19T12:32:59.066Z,382.50
2019-05-19T12:33:55.482Z,371.25
2019-05-19T12:34:55.486Z,388.13
2019-05-19T12:35:55.459Z,399.38
2019-05-19T12:36:55.512Z,405.00
2019-05-19T12:37:55.440Z,410.63
2019-05-19T12:38:55.434Z,421.88
2019-05-19T12:39:55.425Z,444.38
2019-05-19T12:40:55.419Z,483.75
2019-05-19T12:41:55.403Z,495.00
2019-05-19T12:42:55.384Z,523.13
2019-05-19T12:43:55.375Z,545.63
2019-05-19T12:44:55.363Z,551.25
2019-05-19T12:45:55.367Z,534.38
2019-05-19T12:46:55.359Z,528.75
2019-05-19T12:47:55.339Z,523.13
2019-05-19T12:48:55.327Z,523.13
2019-05-19T12:49:55.306Z,528.75
2019-05-19T12:50:55.296Z,523.13
2019-05-19T12:51:55.305Z,523.13
2019-05-19T12:52:55.279Z,528.75
2019-05-19T12:53:55.271Z,556.88
2019-05-19T12:54:55.278Z,573.75
2019-05-19T12:55:55.236Z,585.00
2019-05-19T12:56:55.224Z,573.75
2019-05-19T12:57:55.214Z,579.38
2019-05-19T12:58:55.202Z,590.63
2019-05-19T12:59:55.199Z,596.25
2019-05-19T13:00:55.191Z,601.88
2019-05-19T13:01:55.176Z,579.38
2019-05-19T13:02:55.157Z,551.25
2019-05-19T13:03:55.147Z,523.13
2019-05-19T13:05:04.697Z,495.00
2019-05-19T13:05:55.124Z,466.88
2019-05-19T13:06:55.119Z,438.75
2019-05-19T13:07:55.119Z,388.13
2019-05-19T13:08:55.095Z,371.25
2019-05-19T13:09:55.092Z,360.00
2019-05-19T13:10:55.090Z,348.75
2019-05-19T13:11:55.059Z,354.38
2019-05-19T13:12:55.052Z,360.00
2019-05-19T13:13:55.033Z,360.00
2019-05-19T13:14:55.023Z,354.38
2019-05-19T13:15:55.012Z,348.75
2019-05-19T13:16:55.009Z,343.13
2019-05-19T13:17:54.998Z,331.88
2019-05-19T13:18:54.975Z,315.00
2019-05-19T13:19:54.969Z,298.13
2019-05-19T13:20:54.959Z,275.63
2019-05-19T13:21:54.967Z,264.38
2019-05-19T13:22:54.939Z,258.75
2019-05-19T13:23:55.886Z,253.13
2019-05-19T13:24:54.909Z,247.50
2019-05-19T13:25:54.906Z,241.88
2019-05-19T13:26:56.878Z,247.50
2019-05-19T13:27:54.880Z,236.25
2019-05-19T13:28:54.859Z,230.63
2019-05-19T13:29:54.848Z,230.63
2019-05-19T13:30:54.836Z,230.63
2019-05-19T13:31:54.824Z,236.25
2019-05-19T13:32:54.818Z,236.25
2019-05-19T13:33:54.804Z,247.50
2019-05-19T13:34:54.808Z,258.75
2019-05-19T13:35:54.775Z,275.63
2019-05-19T13:36:54.779Z,281.25
2019-05-19T13:37:54.760Z,292.50
2019-05-19T13:38:54.742Z,303.75
2019-05-19T13:39:54.726Z,309.38
2019-05-19T13:40:54.721Z,315.00
2019-05-19T13:41:54.701Z,320.63
2019-05-19T13:42:54.692Z,326.25
2019-05-19T13:43:54.675Z,331.88
2019-05-19T13:44:54.665Z,337.50
2019-05-19T13:45:54.669Z,343.13
2019-05-19T13:46:54.639Z,337.50
2019-05-19T13:47:54.633Z,337.50
2019-05-19T13:48:54.617Z,331.88
2019-05-19T13:49:54.629Z,331.88
2019-05-19T13:50:54.596Z,331.88
2019-05-19T13:51:54.578Z,331.88
2019-05-19T13:52:54.576Z,326.25
2019-05-19T13:53:54.553Z,320.63
2019-05-19T13:54:54.540Z,309.38
2019-05-19T13:55:54.540Z,303.75
2019-05-19T13:56:54.524Z,286.88
2019-05-19T13:57:54.513Z,270.00
2019-05-19T13:58:54.490Z,264.38
2019-05-19T13:59:54.489Z,247.50
2019-05-19T14:00:54.467Z,236.25
2019-05-19T14:01:54.464Z,225.00
2019-05-19T14:02:54.440Z,208.13
2019-05-19T14:03:54.432Z,196.88
2019-05-19T14:04:54.425Z,185.63
2019-05-19T14:05:54.403Z,168.75
2019-05-19T14:06:54.394Z,157.50
2019-05-19T14:07:54.385Z,146.25
2019-05-19T14:08:54.380Z,140.63
2019-05-19T14:09:54.357Z,129.38
2019-05-19T14:10:54.345Z,118.13
2019-05-19T14:11:54.338Z,106.88
2019-05-19T14:12:54.325Z,101.25
2019-05-19T14:13:54.308Z,95.63
2019-05-19T14:14:54.292Z,90.00
2019-05-19T14:15:54.297Z,90.00
2019-05-19T14:16:54.271Z,90.00
2019-05-19T14:17:54.252Z,90.00
2019-05-19T14:18:54.245Z,95.63
2019-05-19T14:19:54.244Z,95.63
2019-05-19T14:20:54.222Z,101.25
2019-05-19T14:21:54.215Z,101.25
2019-05-19T14:22:54.197Z,106.88
2019-05-19T14:23:54.175Z,118.13
2019-05-19T14:24:54.171Z,123.75
2019-05-19T14:25:54.163Z,135.00
2019-05-19T14:26:54.139Z,140.63
2019-05-19T14:27:54.129Z,146.25
2019-05-19T14:28:54.118Z,151.88
2019-05-19T14:29:54.094Z,151.88
2019-05-19T14:30:54.082Z,146.25
2019-05-19T14:31:54.074Z,140.63
2019-05-19T14:32:54.054Z,129.38
2019-05-19T14:33:54.042Z,118.13
2019-05-19T14:34:54.033Z,101.25
2019-05-19T14:35:54.013Z,90.00
2019-05-19T14:36:54.014Z,84.38
2019-05-19T14:37:53.989Z,78.75
2019-05-19T14:38:53.969Z,78.75
2019-05-19T14:39:53.953Z,78.75
2019-05-19T14:42:22.059Z,84.38
2019-05-19T14:43:22.036Z,78.75
2019-05-19T14:44:22.010Z,84.38
2019-05-19T14:45:22.009Z,90.00
2019-05-19T14:46:21.990Z,95.63
2019-05-19T14:47:22.018Z,106.88
2019-05-19T14:48:21.955Z,112.50
2019-05-19T14:49:21.943Z,123.75
2019-05-19T14:50:21.922Z,129.38
2019-05-19T14:51:22.025Z,135.00
2019-05-19T14:52:21.892Z,146.25
2019-05-19T14:53:21.899Z,146.25
2019-05-19T14:54:21.862Z,151.88
2019-05-19T14:55:21.856Z,151.88
2019-05-19T14:56:21.836Z,157.50
2019-05-19T14:57:21.833Z,163.13
2019-05-19T14:58:21.806Z,163.13
2019-05-19T14:59:21.784Z,163.13
2019-05-19T15:00:21.775Z,168.75
2019-05-19T15:01:21.762Z,168.75
2019-05-19T15:02:21.750Z,180.00
2019-05-19T15:03:21.724Z,191.25
2019-05-19T15:04:21.715Z,202.50
2019-05-19T15:05:21.696Z,208.13
2019-05-19T15:06:21.684Z,219.38
2019-05-19T15:07:21.667Z,236.25
2019-05-19T15:08:21.653Z,247.50
2019-05-19T15:09:21.634Z,253.13
2019-05-19T15:10:21.625Z,258.75
2019-05-19T15:11:21.604Z,258.75
2019-05-19T15:12:21.626Z,258.75
2019-05-19T15:13:21.583Z,258.75
2019-05-19T15:14:21.552Z,258.75
2019-05-19T15:15:21.539Z,258.75
2019-05-19T15:16:21.532Z,258.75
2019-05-19T15:17:21.514Z,258.75
2019-05-19T15:18:21.500Z,253.13
2019-05-19T15:19:21.478Z,258.75
2019-05-19T15:20:21.467Z,258.75
2019-05-19T15:21:21.451Z,253.13
2019-05-19T15:22:21.429Z,253.13
2019-05-19T15:23:22.235Z,241.88
2019-05-19T15:24:21.406Z,230.63
2019-05-19T15:25:21.392Z,213.75
2019-05-19T15:26:21.367Z,208.13
2019-05-19T15:27:21.358Z,202.50
2019-05-19T15:28:21.340Z,196.88
2019-05-19T15:29:21.328Z,185.63
2019-05-19T15:30:21.332Z,174.38
2019-05-19T15:31:21.305Z,168.75
2019-05-19T15:32:21.281Z,157.50
2019-05-19T15:33:21.281Z,146.25
2019-05-19T15:34:21.242Z,140.63
2019-05-19T15:35:21.231Z,135.00
2019-05-19T15:36:21.222Z,123.75
2019-05-19T15:37:21.198Z,118.13
2019-05-19T15:38:21.189Z,112.50
2019-05-19T15:39:21.172Z,106.88
2019-05-19T15:40:21.155Z,101.25
2019-05-19T15:41:21.263Z,95.63
2019-05-19T15:42:21.121Z,90.00
2019-05-19T15:43:21.112Z,84.38
2019-05-19T15:44:21.098Z,78.75
2019-05-19T15:45:21.080Z,78.75
2019-05-19T15:46:21.062Z,73.13
2019-05-19T15:47:21.060Z,73.13
2019-05-19T15:48:21.041Z,67.50
2019-05-19T15:49:21.023Z,67.50
2019-05-19T15:51:38.634Z,56.25
2019-05-19T15:52:06.304Z,56.25
2019-05-19T15:53:05.403Z,50.63
2019-05-19T15:54:05.379Z,50.63
2019-05-19T15:55:05.357Z,56.25
2019-05-19T15:56:05.358Z,56.25
2019-05-19T15:57:05.359Z,56.25
2019-05-19T15:58:16.035Z,61.88
2019-05-19T15:59:05.312Z,61.88
2019-05-19T16:00:05.305Z,67.50
2019-05-19T16:01:05.269Z,67.50
2019-05-19T16:02:38.466Z,67.50
2019-05-19T16:03:05.244Z,67.50
2019-05-19T16:06:23.880Z,61.88
2019-05-19T16:06:50.721Z,61.88
2019-05-19T16:07:50.650Z,61.88
2019-05-19T16:08:53.847Z,61.88
2019-05-19T16:09:50.603Z,61.88
2019-05-19T16:10:50.590Z,61.88
2019-05-19T16:11:50.575Z,61.88
2019-05-19T16:12:50.566Z,61.88
2019-05-19T16:13:50.553Z,56.25
2019-05-19T16:14:50.556Z,56.25
2019-05-19T16:47:35.654Z,247.50
2019-05-19T16:49:08.853Z,253.13
2019-05-19T16:49:35.628Z,258.75
2019-05-19T16:50:35.601Z,270.00
2019-05-19T16:51:35.599Z,270.00
2019-05-19T16:52:35.595Z,264.38
2019-05-19T16:53:35.554Z,264.38
2019-05-19T16:54:35.549Z,258.75
2019-05-19T16:55:35.522Z,247.50
2019-05-19T16:56:35.515Z,241.88
2019-05-19T16:58:27.912Z,230.63
2019-05-19T16:59:08.692Z,225.00
2019-05-19T17:01:20.864Z,208.13
2019-05-19T17:02:54.051Z,202.50
2019-05-19T17:03:20.844Z,196.88
2019-05-19T17:04:20.837Z,196.88
2019-05-19T17:05:20.803Z,191.25
2019-05-19T17:06:20.790Z,191.25
2019-05-19T17:07:20.792Z,191.25
2019-05-19T17:10:06.149Z,191.25
2019-05-19T17:12:51.242Z,196.88
2019-05-19T17:15:36.345Z,196.88
2019-05-19T17:18:21.464Z,196.88
2019-05-19T17:21:06.439Z,202.50
2019-05-19T17:23:51.572Z,191.25
2019-05-19T17:26:36.774Z,180.00
2019-05-19T17:29:21.591Z,174.38
2019-05-19T17:32:06.646Z,168.75
2019-05-19T17:34:51.724Z,151.88
2019-05-19T17:37:36.806Z,151.88
2019-05-19T17:40:21.838Z,146.25
2019-05-19T18:11:11.093Z,61.88
2019-05-19T18:12:11.070Z,61.88
2019-05-19T18:13:11.064Z,61.88